Latest Coastal Weather Observations for Learmonth

IDW60701

Issued at 1:15 am WST Thursday 31 July 2014 (issued every 10 minutes, with the page automatically refreshed every 10 minutes)

About coastal observations | Map of coastal stations | Coastal observations for WA | Marine services | Other Formats
Station Details ID: 005007 Name: LEARMONTH AIRPORT Lat: -22.24 Lon: 114.10 Height: 5.0 m
Data from the previous 72 hours. | See also: Recent months at Learmonth
Date/Time
WST
Temp

°C
Wind Pressure Rain
since 9am
mm
Weather Cloud Vis
km
Sea
Height
m
Swell
Dir
 
Speed
knots
Gust
knots
hPa Trend Height
m
Period
s
Dir
31/01:00am 21.6 SW 8 10 1017.9 - 0.0 - Cloudy 10 - - - -
31/12:30am 22.1 WSW 7 8 1018.1 - 0.0 - Cloudy 10 - - - -
31/12:00am 22.3 WSW 7 9 1018.2 - 0.0 - Cloudy 10 - - - -
 
Date/Time
WST
Temp

°C
Wind Pressure Rain
since 9am
mm
Weather Cloud Vis
km
Sea
Height
m
Swell
Dir
 
Speed
knots
Gust
knots
hPa Trend Height
m
Period
s
Dir
30/11:30pm 22.3 WSW 7 8 1018.4 - 0.0 - Cloudy 10 - - - -
30/11:00pm 21.9 WSW 6 7 1018.4 - 0.0 - Cloudy 10 - - - -
30/10:30pm 22.7 W 4 6 1018.6 - 0.0 - Cloudy 10 - - - -
30/10:00pm 22.9 W 7 10 1018.4 - 0.0 - Cloudy 10 - - - -
30/09:30pm 22.7 WSW 4 6 1018.4 - 0.0 - Cloudy 10 - - - -
30/09:00pm 23.6 WNW 5 7 1018.2 - 0.0 - Cloudy 10 - - - -
30/08:30pm 22.5 N 7 8 1018.3 - 0.0 - Cloudy 10 - - - -
30/08:00pm 23.6 W 4 6 1018.0 - 0.0 - Cloudy 10 - - - -
30/07:30pm 24.0 WNW 3 4 1017.7 - 0.0 - Cloudy 10 - - - -
30/07:00pm 23.9 W 5 6 1017.4 - 0.0 - Cloudy 10 - - - -
30/06:30pm 22.6 N 5 6 1017.1 - 0.0 - Cloudy 10 - - - -
30/06:00pm 23.7 N 6 7 1017.0 - 0.0 - Cloudy 10 - - - -
30/05:30pm 25.5 N 6 7 1017.1 - 0.0 - Cloudy 10 - - - -
30/05:00pm 26.5 N 7 9 1017.2 - 0.0 - Cloudy 10 - - - -
30/04:30pm 27.4 N 8 11 1017.0 - 0.0 - Cloudy 10 - - - -
30/04:00pm 27.7 N 10 12 1017.0 - 0.0 - Cloudy 10 - - - -
30/03:30pm 28.2 N 7 10 1017.0 - 0.0 - Cloudy 10 - - - -
30/03:00pm 27.7 N 8 11 1017.2 R 0.0 Fine Partly cloudy 30 - - - -
30/02:30pm 28.3 NE 5 8 1017.2 - 0.0 - - 10 - - - -
30/02:00pm 28.1 ENE 6 7 1017.4 - 0.0 - Partly cloudy 10 - - - -
30/01:30pm 28.3 ESE 7 10 1017.5 - 0.0 - Partly cloudy 10 - - - -
30/01:00pm 27.4 SE 7 10 1018.0 - 0.0 - Partly cloudy 10 - - - -
30/12:30pm 26.9 SE 6 8 1018.6 - 0.0 - Partly cloudy 10 - - - -
30/12:00pm 25.3 SE 5 7 1019.0 F 0.0 Fine Cloudy 30 - - - -
30/11:30am 24.8 SE 6 8 1019.4 - 0.0 - - 10 - - - -
30/11:00am 24.4 SE 3 8 1019.9 - 0.0 - - 10 - - - -
30/10:30am 23.5 SE 5 8 1020.3 - 0.0 - - 10 - - - -
30/10:00am 23.3 SE 5 10 1020.4 - 0.0 - - 10 - - - -
30/09:30am 22.3 SSE 6 9 1020.4 - 0.0 - - 10 - - - -
30/09:00am 21.9 S 5 8 1020.0 F 0.0 Fine Mostly cloudy 30 - - - -
30/08:30am 19.9 SW 5 6 1020.1 - 0.0 - - 10 - - - -
30/08:00am 17.5 WSW 5 6 1020.0 - 0.0 - - 10 - - - -
30/07:30am 15.0 WSW 7 8 1019.8 - 0.0 - - 10 - - - -
30/07:00am 16.1 W 4 5 1019.7 - 0.0 - - 10 - - - -
30/06:30am 16.6 W 2 5 1019.5 - 0.0 - - 10 - - - -
30/06:00am 16.4 WSW 5 7 1019.3 R 0.0 Fine Mostly clear 30 - - - -
30/05:30am 16.4 SSW 6 7 1019.2 - 0.0 - - 10 - - - -
30/05:00am 15.9 SW 5 6 1019.0 - 0.0 - - 10 - - - -
30/04:30am 17.3 SSW 4 7 1018.9 - 0.0 - - 10 - - - -
30/04:00am 17.3 SSW 4 7 1018.9 - 0.0 - - 10 - - - -
30/03:30am 15.3 WSW 4 5 1019.0 - 0.0 - - 10 - - - -
30/03:00am 16.5 SW 5 7 1018.7 - 0.0 - - 10 - - - -
30/02:30am 16.2 SW 7 8 1018.7 - 0.0 - - 10 - - - -
30/02:00am 16.5 SW 7 9 1018.9 - 0.0 - - 10 - - - -
30/01:30am 16.6 SSW 8 9 1019.1 - 0.0 - - 10 - - - -
30/01:00am 17.8 SW 8 10 1019.1 - 0.0 - - 10 - - - -
30/12:30am 17.7 SSW 7 8 1019.0 - 0.0 - - 10 - - - -
30/12:00am 18.9 SSW 8 9 1018.9 - 0.0 - - 10 - - - -
 
Date/Time
WST
Temp

°C
Wind Pressure Rain
since 9am
mm
Weather Cloud Vis
km
Sea
Height
m
Swell
Dir
 
Speed
knots
Gust
knots
hPa Trend Height
m
Period
s
Dir
29/11:30pm 18.6 SSW 8 9 1019.1 - 0.0 - - 10 - - - -
29/11:00pm 18.3 SSW 9 10 1019.3 - 0.0 - - 10 - - - -
29/10:30pm 17.1 SW 5 6 1019.3 - 0.0 - - 10 - - - -
29/10:00pm 17.5 SW 8 9 1019.4 - 0.0 - - 10 - - - -
29/09:30pm 17.3 SW 8 9 1019.3 - 0.0 - - 10 - - - -
29/09:00pm 17.6 SW 8 9 1019.1 - 0.0 - - 10 - - - -
29/08:30pm 17.9 SW 8 9 1019.1 - 0.0 - - 10 - - - -
29/08:00pm 18.7 SW 8 9 1019.0 - 0.0 - - 10 - - - -
29/07:30pm 19.3 SW 7 8 1018.9 - 0.0 - - 10 - - - -
29/07:00pm 19.2 SW 9 10 1018.6 - 0.0 - - 10 - - - -
29/06:30pm 23.2 SW 5 6 1018.3 - 0.0 - - 10 - - - -
29/06:00pm 25.6 S 4 4 1018.0 - 0.0 - - 10 - - - -
29/05:30pm 26.8 SSE 4 4 1017.9 - 0.0 - - 10 - - - -
29/05:00pm 27.8 ESE 5 7 1017.9 - 0.0 - - 10 - - - -
29/04:30pm 28.3 SE 6 8 1017.8 - 0.0 - - 10 - - - -
29/04:00pm 28.4 E 7 8 1017.7 - 0.0 - - 10 - - - -
29/03:30pm 28.3 E 6 7 1017.9 - 0.0 - - 10 - - - -
29/03:00pm 28.5 E 7 8 1018.0 R 0.0 Fine Mostly clear 30 - - - -
29/02:30pm 28.4 E 7 10 1018.3 - 0.0 - - 10 - - - -
29/02:00pm 27.6 ESE 6 9 1018.4 - 0.0 - - 10 - - - -
29/01:30pm 27.4 ESE 6 8 1018.7 - 0.0 - - 10 - - - -
29/01:00pm 26.3 SE 7 9 1019.2 - 0.0 - - 10 - - - -
29/12:30pm 26.0 SE 6 9 1019.7 - 0.0 - - 10 - - - -
29/12:00pm 25.0 SE 8 10 1019.9 F 0.0 Fine Mostly clear 30 - - - -
29/11:30am 23.6 SSE 7 9 1020.4 - 0.0 - - 10 - - - -
29/11:00am 22.4 S 5 8 1020.8 - 0.0 - - 10 - - - -
29/10:30am 22.3 E 5 7 1021.0 - 0.0 - - 10 - - - -
29/10:00am 21.4 ESE 5 7 1021.1 - 0.0 - - 10 - - - -
29/09:30am 20.8 SSE 6 12 1021.1 - 0.0 - - 10 - - - -
29/09:00am 19.2 S 7 9 1020.8 S 0.0 Fine Mostly clear 30 - - - -
29/08:30am 17.5 SW 7 8 1020.8 - 0.0 - - 10 - - - -
29/08:00am 15.3 SW 7 8 1020.6 - 0.0 - - 10 - - - -
29/07:30am 12.0 WSW 7 8 1020.3 - 0.0 - - 10 - - - -
29/07:00am 11.3 SW 7 9 1019.8 - 0.0 - - 10 - - - -
29/06:30am 11.4 WSW 9 9 1019.6 - 0.0 - - 10 - - - -
29/06:00am 12.1 WSW 7 7 1019.3 S 0.0 Fine Clear 30 - - - -
29/05:30am 12.3 WSW 8 8 1019.2 - 0.0 - - 10 - - - -
29/05:00am 12.4 WSW 8 9 1019.0 - 0.0 - - 10 - - - -
29/04:30am 12.4 WSW 8 9 1019.1 - 0.0 - - 10 - - - -
29/04:00am 12.6 SW 6 7 1019.0 - 0.0 - - 10 - - - -
29/03:30am 12.8 SW 7 8 1019.2 - 0.0 - - 10 - - - -
29/03:00am 13.5 SW 7 8 1019.2 - 0.0 - - 10 - - - -
29/02:30am 13.7 WSW 7 9 1019.4 - 0.0 - - 10 - - - -
29/02:00am 12.9 SW 8 9 1019.7 - 0.0 - - 10 - - - -
29/01:30am 13.3 SSW 7 9 1019.8 - 0.0 - - 10 - - - -
29/01:00am 14.2 SSW 8 9 1019.8 - 0.0 - - 10 - - - -
29/12:30am 14.7 SSW 9 10 1019.7 - 0.0 - - 10 - - - -
29/12:00am 13.3 SW 7 9 1019.8 - 0.0 - - 10 - - - -
 
Date/Time
WST
Temp

°C
Wind Pressure Rain
since 9am
mm
Weather Cloud Vis
km
Sea
Height
m
Swell
Dir
 
Speed
knots
Gust
knots
hPa Trend Height
m
Period
s
Dir
28/11:30pm 13.3 S 9 11 1019.9 - 0.0 - - 10 - - - -
28/11:00pm 15.4 W 6 7 1019.7 - 0.0 - - 10 - - - -
28/10:30pm 15.2 WSW 5 6 1019.8 - 0.0 - - 10 - - - -
28/10:00pm 16.0 WSW 5 7 1019.7 - 0.0 - - 10 - - - -
28/09:30pm 16.2 WSW 6 7 1019.6 - 0.0 - - 10 - - - -
28/09:00pm 16.4 WSW 5 7 1019.4 - 0.0 - - 10 - - - -
28/08:30pm 16.4 WSW 7 8 1019.3 - 0.0 - - 10 - - - -
28/08:00pm 17.2 SW 7 7 1019.2 - 0.0 - - 10 - - - -
28/07:30pm 16.1 SSW 6 7 1019.0 - 0.0 - - 10 - - - -
28/07:00pm 20.2 WSW 4 5 1018.6 - 0.0 - - 10 - - - -
28/06:30pm 22.2 WSW 3 4 1018.5 - 0.0 - - 10 - - - -
28/06:00pm 23.1 ESE 3 3 1018.4 - 0.0 - - 10 - - - -
28/05:30pm 24.1 ESE 4 5 1018.3 - 0.0 - - 10 - - - -
28/05:00pm 25.2 SE 3 4 1018.3 - 0.0 - - 10 - - - -
28/04:30pm 25.5 E 4 5 1018.3 - 0.0 - - 10 - - - -
28/04:00pm 25.9 E 5 7 1018.3 - 0.0 - - 10 - - - -
28/03:30pm 25.9 E 5 7 1018.3 - 0.0 - - 10 - - - -
28/03:00pm 25.9 E 7 9 1018.4 R 0.0 Fine Mostly clear 30 - - - -
28/02:30pm 26.1 ENE 7 9 1018.5 - 0.0 - - 10 - - - -
28/02:00pm 25.5 E 8 10 1018.7 - 0.0 - - 10 - - - -
28/01:30pm 24.4 E 8 11 1019.1 - 0.0 - - 10 - - - -
28/01:00pm 24.1 E 7 11 1019.5 - 0.0 - - 10 - - - -
28/12:30pm 23.4 E 7 9 1020.1 - 0.0 - - 10 - - - -
28/12:00pm 22.2 E 6 9 1020.4 F 0.0 Fine Mostly clear 30 - - - -
28/11:30am 21.6 ESE 6 9 1020.9 - 0.0 - - 10 - - - -
28/11:00am 21.3 SE 9 12 1021.3 - 0.0 - - 10 - - - -
28/10:30am 21.1 SE 7 11 1021.6 - 0.0 - - 10 - - - -
28/10:00am 19.9 SE 7 11 1021.9 - 0.0 - - 10 - - - -
28/09:30am 18.9 SSE 9 12 1022.0 - 0.0 - - 10 - - - -
28/09:00am 17.5 S 10 13 1021.9 R 0.0 Fine Clear 30 - - - -
28/08:30am 15.8 SSW 5 7 1021.7 - 0.0 - - 10 - - - -
28/08:00am 13.9 SSW 5 7 1021.4 - 0.0 - - 10 - - - -
28/07:30am 12.1 SW 6 8 1021.1 - 0.0 - - 10 - - - -
28/07:00am 11.7 SSW 7 8 1020.7 - 0.0 - - 10 - - - -
28/06:30am 12.1 SW 8 9 1020.7 - 0.0 - - 10 - - - -
28/06:00am 11.5 SW 8 10 1020.2 R 0.0 Fine Clear 30 - - - -
28/05:30am 11.8 SW 8 9 1020.1 - 0.0 - - 10 - - - -
28/05:00am 11.6 SW 8 9 1020.0 - 0.0 - - 10 - - - -
28/04:30am 12.0 SW 9 10 1019.8 - 0.0 - - 10 - - - -
28/04:00am 12.8 SW 7 9 1019.7 - 0.0 - - 10 - - - -
28/03:30am 12.9 SW 8 9 1019.8 - 0.0 - - 10 - - - -
28/03:00am 12.4 SW 8 9 1019.9 - 0.0 - - 10 - - - -
28/02:30am 12.5 SSW 6 8 1020.1 - 0.0 - - 10 - - - -
28/02:00am 12.9 SSW 6 7 1020.2 - 0.0 - - 10 - - - -
28/01:30am 13.7 SSW 6 7 1020.3 - 0.0 - - 10 - - - -

Other Formats:

Comma delimited format used in spreadsheet applications
http://www.bom.gov.au/fwo/IDW60701/IDW60701.94302.axf

JavaScript Object Notation format (JSON) in row-major order
http://www.bom.gov.au/fwo/IDW60701/IDW60701.94302.json